createdAt,value
2018-05-13T00:00:25.458Z,100623.20
2018-05-13T00:01:28.793Z,100616.46
2018-05-13T00:02:32.156Z,100620.51
2018-05-13T00:03:35.485Z,100620.51
2018-05-13T00:04:38.799Z,100623.20
2018-05-13T00:05:42.120Z,100619.67
2018-05-13T00:06:45.571Z,100616.55
2018-05-13T00:07:48.908Z,100617.99
2018-05-13T00:08:52.227Z,100618.92
2018-05-13T00:09:55.567Z,100619.04
2018-05-13T00:10:58.913Z,100615.08
2018-05-13T00:12:02.262Z,100620.56
2018-05-13T00:13:05.618Z,100624.28
2018-05-13T00:14:08.941Z,100620.36
2018-05-13T00:15:12.266Z,100614.13
2018-05-13T00:16:15.602Z,100618.59
2018-05-13T00:17:18.927Z,100619.19
2018-05-13T00:18:22.277Z,100619.70
2018-05-13T00:19:25.607Z,100617.92
2018-05-13T00:20:28.940Z,100619.28
2018-05-13T00:21:32.267Z,100620.23
2018-05-13T00:22:35.590Z,100617.54
2018-05-13T00:23:39.214Z,100619.91
2018-05-13T00:24:42.627Z,100623.53
2018-05-13T00:25:46.106Z,100624.76
2018-05-13T00:26:49.438Z,100627.45
2018-05-13T00:27:52.742Z,100626.20
2018-05-13T00:28:56.158Z,100626.38
2018-05-13T00:29:59.496Z,100639.05
2018-05-13T00:31:02.828Z,100639.14
2018-05-13T00:32:06.154Z,100636.63
2018-05-13T00:33:09.472Z,100639.95
2018-05-13T00:34:12.831Z,100637.84
2018-05-13T00:35:16.229Z,100638.02
2018-05-13T00:36:19.538Z,100643.63
2018-05-13T00:37:22.887Z,100636.13
2018-05-13T00:38:26.523Z,100634.91
2018-05-13T00:39:29.875Z,100633.73
2018-05-13T00:40:33.190Z,100629.78
2018-05-13T00:41:36.507Z,100631.34
2018-05-13T00:42:39.833Z,100631.00
2018-05-13T00:43:43.159Z,100634.63
2018-05-13T00:44:46.543Z,100629.74
2018-05-13T00:45:49.876Z,100632.14
2018-05-13T00:46:53.203Z,100636.78
2018-05-13T00:47:56.532Z,100629.20
2018-05-13T00:48:59.989Z,100630.22
2018-05-13T00:50:03.374Z,100634.80
2018-05-13T00:51:06.763Z,100630.84
2018-05-13T00:52:10.084Z,100634.55
2018-05-13T00:53:13.418Z,100632.37
2018-05-13T00:54:28.482Z,100630.60
2018-05-13T00:55:31.838Z,100629.34
2018-05-13T00:56:35.154Z,100627.57
2018-05-13T00:57:38.542Z,100629.42
2018-05-13T00:58:41.899Z,100627.74
2018-05-13T00:59:45.223Z,100626.48
2018-05-13T01:00:48.551Z,100623.48
2018-05-13T01:01:51.861Z,100624.50
2018-05-13T01:02:55.183Z,100620.55
2018-05-13T01:03:58.492Z,100626.56
2018-05-13T01:05:01.808Z,100623.96
2018-05-13T01:06:05.160Z,100624.55
2018-05-13T01:07:08.483Z,100621.02
2018-05-13T01:08:11.987Z,100621.44
2018-05-13T01:09:15.319Z,100613.56
2018-05-13T01:10:18.719Z,100618.11
2018-05-13T01:11:22.039Z,100615.33
2018-05-13T01:12:25.375Z,100613.56
2018-05-13T01:13:28.704Z,100612.27
2018-05-13T01:14:32.029Z,100609.16
2018-05-13T01:15:35.349Z,100619.01
2018-05-13T01:16:38.682Z,100613.20
2018-05-13T01:17:42.007Z,100615.47
2018-05-13T01:18:45.318Z,100617.75
2018-05-13T01:19:48.630Z,100615.47
2018-05-13T01:20:51.984Z,100613.28
2018-05-13T01:21:55.315Z,100615.56
2018-05-13T01:22:58.637Z,100617.75
2018-05-13T01:24:02.213Z,100611.22
2018-05-13T01:25:05.525Z,100608.19
2018-05-13T01:26:08.844Z,100609.63
2018-05-13T01:27:12.190Z,100612.83
2018-05-13T01:28:15.514Z,100604.86
2018-05-13T01:29:18.855Z,100605.37
2018-05-13T01:30:22.167Z,100600.40
2018-05-13T01:31:25.501Z,100599.65
2018-05-13T01:32:28.893Z,100604.28
2018-05-13T01:33:32.219Z,100606.05
2018-05-13T01:34:35.635Z,100608.45
2018-05-13T01:35:38.974Z,100604.58
2018-05-13T01:36:42.494Z,100597.84
2018-05-13T01:37:45.851Z,100603.83
2018-05-13T01:38:49.170Z,100611.10
2018-05-13T01:39:52.513Z,100606.31
2018-05-13T01:40:55.838Z,100611.06
2018-05-13T01:41:59.170Z,100614.77
2018-05-13T01:43:02.510Z,100616.72
2018-05-13T01:44:05.879Z,100613.72
2018-05-13T01:45:09.348Z,100610.27
2018-05-13T01:46:12.667Z,100614.40
2018-05-13T01:47:15.971Z,100620.72
2018-05-13T01:48:19.313Z,100625.27
2018-05-13T01:49:22.625Z,100626.22
2018-05-13T01:50:25.949Z,100620.41
2018-05-13T01:51:29.263Z,100624.88
2018-05-13T01:52:32.573Z,100635.23
2018-05-13T01:53:35.937Z,100623.62
2018-05-13T01:54:39.261Z,100629.42
2018-05-13T01:55:42.597Z,100638.73
2018-05-13T01:56:45.916Z,100630.77
2018-05-13T01:57:49.238Z,100623.41
2018-05-13T01:58:52.611Z,100623.83
2018-05-13T01:59:56.013Z,100624.16
2018-05-13T02:00:59.323Z,100629.97
2018-05-13T02:02:02.634Z,100627.08
2018-05-13T02:03:05.951Z,100627.49
2018-05-13T02:04:09.290Z,100626.90
2018-05-13T02:05:12.634Z,100625.34
2018-05-13T02:06:15.947Z,100627.02
2018-05-13T02:07:19.266Z,100629.97
2018-05-13T02:08:22.592Z,100629.76
2018-05-13T02:09:25.946Z,100636.41
2018-05-13T02:10:29.254Z,100628.03
2018-05-13T02:11:32.566Z,100627.95
2018-05-13T02:12:35.884Z,100625.88
2018-05-13T02:13:39.193Z,100625.80
2018-05-13T02:14:42.540Z,100626.97
2018-05-13T02:15:45.858Z,100620.11
2018-05-13T02:16:49.310Z,100625.83
2018-05-13T02:17:52.628Z,100624.06
2018-05-13T02:18:55.962Z,100622.21
2018-05-13T02:19:59.297Z,100627.09
2018-05-13T02:21:02.624Z,100622.88
2018-05-13T02:22:05.948Z,100622.79
2018-05-13T02:23:09.269Z,100620.52
2018-05-13T02:24:13.615Z,100618.75
2018-05-13T02:25:16.948Z,100615.96
2018-05-13T02:26:20.258Z,100615.96
2018-05-13T02:27:23.579Z,100616.30
2018-05-13T02:28:26.896Z,100614.52
2018-05-13T02:29:30.234Z,100624.80
2018-05-13T02:30:33.584Z,100621.56
2018-05-13T02:31:36.889Z,100620.64
2018-05-13T02:32:40.193Z,100625.09
2018-05-13T02:33:43.518Z,100628.22
2018-05-13T02:34:46.851Z,100623.66
2018-05-13T02:35:50.190Z,100625.44
2018-05-13T02:36:53.504Z,100623.16
2018-05-13T02:37:56.818Z,100620.55
2018-05-13T02:39:00.145Z,100625.52
2018-05-13T02:40:03.496Z,100626.87
2018-05-13T02:41:06.836Z,100627.37
2018-05-13T02:42:10.152Z,100626.14
2018-05-13T02:43:13.461Z,100623.87
2018-05-13T02:44:16.798Z,100623.54
2018-05-13T02:45:20.109Z,100623.12
2018-05-13T02:46:23.455Z,100620.00
2018-05-13T02:47:26.767Z,100626.41
2018-05-13T02:48:30.090Z,100622.88
2018-05-13T02:49:33.420Z,100625.57
2018-05-13T02:50:36.750Z,100633.27
2018-05-13T02:51:40.098Z,100631.30
2018-05-13T02:52:43.427Z,100639.80
2018-05-13T02:53:46.760Z,100628.18
2018-05-13T02:54:50.092Z,100631.62
2018-05-13T02:55:53.403Z,100630.61
2018-05-13T02:56:56.755Z,100629.14
2018-05-13T02:58:00.084Z,100631.24
2018-05-13T02:59:03.397Z,100634.36
2018-05-13T03:00:06.734Z,100635.62
2018-05-13T03:01:10.056Z,100634.48
2018-05-13T03:02:13.432Z,100632.72
2018-05-13T03:03:16.744Z,100632.21
2018-05-13T03:04:20.064Z,100632.54
2018-05-13T03:05:23.391Z,100631.91
2018-05-13T03:06:26.710Z,100638.23
2018-05-13T03:07:30.046Z,100635.87
2018-05-13T03:08:33.382Z,100635.87
2018-05-13T03:09:36.696Z,100636.46
2018-05-13T03:10:40.013Z,100628.38
2018-05-13T03:11:43.333Z,100621.25
2018-05-13T03:12:46.719Z,100629.42
2018-05-13T03:13:50.048Z,100634.06
2018-05-13T03:14:53.358Z,100636.42
2018-05-13T03:15:56.678Z,100631.58
2018-05-13T03:17:00.007Z,100636.64
2018-05-13T03:18:03.355Z,100639.92
2018-05-13T03:19:06.710Z,100642.83
2018-05-13T03:20:10.013Z,100641.98
2018-05-13T03:21:13.342Z,100642.79
2018-05-13T03:22:16.668Z,100640.23
2018-05-13T03:23:20.007Z,100644.06
2018-05-13T03:24:23.437Z,100646.09
2018-05-13T03:25:26.761Z,100647.23
2018-05-13T03:26:30.075Z,100642.94
2018-05-13T03:27:33.399Z,100646.77
2018-05-13T03:28:36.766Z,100646.55
2018-05-13T03:29:40.102Z,100655.23
2018-05-13T03:30:43.426Z,100645.47
2018-05-13T03:31:46.759Z,100646.19
2018-05-13T03:32:50.139Z,100641.72
2018-05-13T03:33:53.486Z,100649.98
2018-05-13T03:34:56.808Z,100648.84
2018-05-13T03:36:00.134Z,100660.54
2018-05-13T03:37:03.457Z,100663.32
2018-05-13T03:38:06.799Z,100659.37
2018-05-13T03:39:10.252Z,100659.91
2018-05-13T03:40:13.573Z,100661.64
2018-05-13T03:41:16.976Z,100661.76
2018-05-13T03:42:20.292Z,100663.41
2018-05-13T03:43:23.610Z,100664.76
2018-05-13T03:44:26.957Z,100666.02
2018-05-13T03:45:30.411Z,100666.77
2018-05-13T03:46:33.739Z,100670.30
2018-05-13T03:47:37.063Z,100673.30
2018-05-13T03:48:40.383Z,100675.41
2018-05-13T03:49:43.726Z,100679.24
2018-05-13T03:50:47.074Z,100680.00
2018-05-13T03:51:50.395Z,100674.52
2018-05-13T03:52:53.716Z,100679.28
2018-05-13T03:53:57.059Z,100682.31
2018-05-13T03:55:00.412Z,100681.30
2018-05-13T03:56:03.731Z,100683.91
2018-05-13T03:57:07.050Z,100681.94
2018-05-13T03:58:10.401Z,100675.95
2018-05-13T03:59:13.730Z,100682.06
2018-05-13T04:00:17.091Z,100678.02
2018-05-13T04:01:20.407Z,100681.98
2018-05-13T04:02:23.716Z,100681.05
2018-05-13T04:03:27.067Z,100678.27
2018-05-13T04:04:30.386Z,100676.91
2018-05-13T04:05:33.725Z,100677.76
2018-05-13T04:06:37.045Z,100680.03
2018-05-13T04:09:40.942Z,100678.18
2018-05-13T04:10:56.024Z,100680.03
2018-05-13T04:12:11.289Z,100680.13
2018-05-13T04:13:26.426Z,100682.52
2018-05-13T04:14:41.641Z,100688.50
2018-05-13T04:15:45.052Z,100682.78
2018-05-13T04:16:48.389Z,100687.23
2018-05-13T04:17:51.719Z,100680.41
2018-05-13T04:18:55.020Z,100682.61
2018-05-13T04:19:58.338Z,100687.37
2018-05-13T04:21:01.662Z,100685.52
2018-05-13T04:22:05.033Z,100685.01
2018-05-13T04:23:08.362Z,100684.41
2018-05-13T04:24:11.731Z,100688.55
2018-05-13T04:25:15.417Z,100691.06
2018-05-13T04:26:18.671Z,100696.03
2018-05-13T04:27:22.009Z,100693.76
2018-05-13T04:28:25.476Z,100689.30
2018-05-13T04:29:28.779Z,100691.16
2018-05-13T04:30:32.094Z,100691.57
2018-05-13T04:31:35.434Z,100687.95
2018-05-13T04:32:38.797Z,100693.76
2018-05-13T04:33:42.110Z,100690.53
2018-05-13T04:34:45.435Z,100693.22
2018-05-13T04:35:48.754Z,100694.06
2018-05-13T04:36:52.146Z,100691.88
2018-05-13T04:37:55.687Z,100691.45
2018-05-13T04:38:59.032Z,100692.20
2018-05-13T04:40:02.386Z,100691.19
2018-05-13T04:41:05.713Z,100697.42
2018-05-13T04:42:09.110Z,100695.88
2018-05-13T04:43:12.423Z,100689.05
2018-05-13T04:44:15.759Z,100696.42
2018-05-13T04:45:19.081Z,100689.54
2018-05-13T04:46:22.404Z,100692.95
2018-05-13T04:47:25.735Z,100680.32
2018-05-13T04:48:29.067Z,100688.66
2018-05-13T04:49:32.390Z,100687.09
2018-05-13T04:50:35.711Z,100681.63
2018-05-13T04:51:39.178Z,100679.26
2018-05-13T04:52:42.520Z,100686.00
2018-05-13T04:53:45.970Z,100688.91
2018-05-13T04:54:49.292Z,100682.50
2018-05-13T04:55:52.655Z,100692.27
2018-05-13T04:56:55.984Z,100687.69
2018-05-13T04:57:59.298Z,100685.41
2018-05-13T04:59:02.635Z,100688.53
2018-05-13T05:00:05.974Z,100692.48
2018-05-13T05:01:09.323Z,100693.92
2018-05-13T05:02:12.690Z,100690.30
2018-05-13T05:03:16.014Z,100688.86
2018-05-13T05:04:19.362Z,100692.31
2018-05-13T05:05:22.689Z,100693.74
2018-05-13T05:06:26.025Z,100701.20
2018-05-13T05:07:29.396Z,100705.67
2018-05-13T05:08:32.706Z,100698.93
2018-05-13T05:09:36.053Z,100706.00
2018-05-13T05:10:39.403Z,100708.28
2018-05-13T05:11:42.730Z,100710.55
2018-05-13T05:12:46.059Z,100696.14
2018-05-13T05:13:49.384Z,100703.81
2018-05-13T05:14:52.755Z,100702.98
2018-05-13T05:15:56.067Z,100702.47
2018-05-13T05:16:59.376Z,100699.27
2018-05-13T05:18:02.714Z,100696.90
2018-05-13T05:19:06.023Z,100697.87
2018-05-13T05:20:09.367Z,100693.66
2018-05-13T05:21:12.720Z,100696.55
2018-05-13T05:22:16.063Z,100686.84
2018-05-13T05:23:19.410Z,100689.49
2018-05-13T05:24:22.729Z,100687.97
2018-05-13T05:25:26.398Z,100686.74
2018-05-13T05:26:29.751Z,100693.34
2018-05-13T05:27:33.072Z,100689.45
2018-05-13T05:28:36.398Z,100693.14
2018-05-13T05:29:39.731Z,100691.56
2018-05-13T05:30:43.067Z,100694.83
2018-05-13T05:31:46.403Z,100695.38
2018-05-13T05:32:49.717Z,100693.25
2018-05-13T05:33:53.056Z,100700.95
2018-05-13T05:34:56.391Z,100703.36
2018-05-13T05:35:59.754Z,100713.25
2018-05-13T05:37:03.079Z,100712.29
2018-05-13T05:38:06.425Z,100716.57
2018-05-13T05:39:09.766Z,100723.76
2018-05-13T05:40:13.087Z,100726.52
2018-05-13T05:41:16.443Z,100729.93
2018-05-13T05:42:19.794Z,100730.78
2018-05-13T05:43:23.151Z,100731.60
2018-05-13T05:44:26.484Z,100727.77
2018-05-13T05:45:29.812Z,100734.81
2018-05-13T05:46:33.160Z,100739.58
2018-05-13T05:47:36.508Z,100738.14
2018-05-13T05:48:39.819Z,100736.07
2018-05-13T05:49:43.152Z,100749.27
2018-05-13T05:50:46.458Z,100749.23
2018-05-13T05:51:49.818Z,100747.12
2018-05-13T05:52:53.143Z,100755.77
2018-05-13T05:53:56.500Z,100754.41
2018-05-13T05:54:59.814Z,100752.41
2018-05-13T05:56:03.158Z,100755.34
2018-05-13T05:57:06.563Z,100760.26
2018-05-13T05:58:09.891Z,100750.98
2018-05-13T05:59:13.214Z,100758.12
2018-05-13T06:00:16.534Z,100755.08
2018-05-13T06:01:19.857Z,100757.47
2018-05-13T06:02:23.210Z,100756.20
2018-05-13T06:03:26.522Z,100756.20
2018-05-13T06:04:29.840Z,100756.52
2018-05-13T06:05:33.241Z,100754.84
2018-05-13T06:06:36.627Z,100760.77
2018-05-13T06:07:39.969Z,100763.48
2018-05-13T06:08:43.282Z,100767.03
2018-05-13T06:09:46.599Z,100772.55
2018-05-13T06:10:49.923Z,100783.30
2018-05-13T06:11:53.236Z,100785.27
2018-05-13T06:12:56.578Z,100784.55
2018-05-13T06:13:59.902Z,100784.55
2018-05-13T06:15:03.228Z,100793.39
2018-05-13T06:16:06.580Z,100786.94
2018-05-13T06:17:09.891Z,100787.97
2018-05-13T06:18:13.246Z,100791.61
2018-05-13T06:19:16.635Z,100794.95
2018-05-13T06:20:20.018Z,100796.08
2018-05-13T06:21:23.343Z,100796.30
2018-05-13T06:22:26.685Z,100800.05
2018-05-13T06:23:30.174Z,100807.03
2018-05-13T06:24:33.493Z,100804.33
2018-05-13T06:25:37.090Z,100803.78
2018-05-13T06:26:40.419Z,100812.75
2018-05-13T06:27:43.739Z,100809.12
2018-05-13T06:28:47.110Z,100810.85
2018-05-13T06:29:50.423Z,100809.72
2018-05-13T06:30:53.765Z,100811.39
2018-05-13T06:31:57.097Z,100805.34
2018-05-13T06:33:00.482Z,100804.81
2018-05-13T06:34:03.829Z,100805.02
2018-05-13T06:35:07.150Z,100803.66
2018-05-13T06:36:10.480Z,100802.06
2018-05-13T06:37:13.795Z,100795.69
2018-05-13T06:38:17.102Z,100786.61
2018-05-13T06:39:20.466Z,100788.91
2018-05-13T06:40:23.779Z,100795.18
2018-05-13T06:41:27.103Z,100794.67
2018-05-13T06:42:30.424Z,100803.66
2018-05-13T06:43:33.745Z,100796.13
2018-05-13T06:44:37.158Z,100806.05
2018-05-13T06:45:40.457Z,100803.13
2018-05-13T06:46:43.774Z,100798.72
2018-05-13T06:47:47.097Z,100800.13
2018-05-13T06:48:50.416Z,100805.09
2018-05-13T06:49:53.846Z,100808.11
2018-05-13T06:50:57.205Z,100805.23
2018-05-13T06:52:00.493Z,100807.23
2018-05-13T06:53:03.818Z,100808.23
2018-05-13T06:54:07.123Z,100812.55
2018-05-13T06:55:10.468Z,100808.90
2018-05-13T06:56:13.795Z,100802.66
2018-05-13T06:57:17.191Z,100805.70
2018-05-13T06:58:20.648Z,100809.70
2018-05-13T06:59:23.971Z,100804.57
2018-05-13T07:00:27.318Z,100797.91
2018-05-13T07:01:30.626Z,100797.17
2018-05-13T07:02:33.952Z,100795.31
2018-05-13T07:03:37.247Z,100791.58
2018-05-13T07:04:40.564Z,100797.31
2018-05-13T07:05:43.902Z,100794.20
2018-05-13T07:06:47.240Z,100793.61
2018-05-13T07:07:50.555Z,100793.02
2018-05-13T07:08:53.862Z,100790.20
2018-05-13T07:09:57.187Z,100795.47
2018-05-13T07:11:00.525Z,100794.33
2018-05-13T07:12:03.845Z,100790.50
2018-05-13T07:13:07.174Z,100782.86
2018-05-13T07:14:10.488Z,100783.39
2018-05-13T07:15:13.811Z,100781.20
2018-05-13T07:16:17.152Z,100779.45
2018-05-13T07:17:20.470Z,100775.52
2018-05-13T07:18:23.779Z,100777.92
2018-05-13T07:19:27.103Z,100775.55
2018-05-13T07:20:30.419Z,100780.87
2018-05-13T07:21:33.778Z,100785.27
2018-05-13T07:22:37.094Z,100785.39
2018-05-13T07:23:40.791Z,100784.59
2018-05-13T07:24:44.113Z,100790.84
2018-05-13T07:25:47.669Z,100795.98
2018-05-13T07:26:51.007Z,100802.34
2018-05-13T07:27:54.319Z,100812.23
2018-05-13T07:28:57.639Z,100817.33
2018-05-13T07:30:00.962Z,100820.88
2018-05-13T07:31:04.274Z,100820.36
2018-05-13T07:32:07.615Z,100825.27
2018-05-13T07:33:11.007Z,100824.44
2018-05-13T07:34:14.335Z,100828.50
2018-05-13T07:35:17.642Z,100827.14
2018-05-13T07:36:21.046Z,100823.17
2018-05-13T07:37:24.390Z,100817.84
2018-05-13T07:38:27.776Z,100820.55
2018-05-13T07:39:31.118Z,100823.06
2018-05-13T07:40:34.435Z,100821.91
2018-05-13T07:41:37.747Z,100822.83
2018-05-13T07:42:41.087Z,100820.77
2018-05-13T07:43:44.391Z,100819.28
2018-05-13T07:44:47.707Z,100824.17
2018-05-13T07:45:51.016Z,100826.27
2018-05-13T07:46:54.328Z,100832.42
2018-05-13T07:47:57.781Z,100833.64
2018-05-13T07:49:01.095Z,100831.25
2018-05-13T07:50:04.402Z,100832.89
2018-05-13T07:51:07.731Z,100826.22
2018-05-13T07:52:11.046Z,100827.47
2018-05-13T07:53:14.390Z,100827.89
2018-05-13T07:54:17.711Z,100824.58
2018-05-13T07:55:21.032Z,100833.54
2018-05-13T07:56:24.343Z,100827.52
2018-05-13T07:57:27.678Z,100829.70
2018-05-13T07:58:32.359Z,100829.80
2018-05-13T07:59:35.698Z,100834.38
2018-05-13T08:00:39.029Z,100833.35
2018-05-13T08:01:42.336Z,100834.06
2018-05-13T08:02:45.650Z,100832.81
2018-05-13T08:03:48.993Z,100831.27
2018-05-13T08:04:52.301Z,100831.88
2018-05-13T08:05:55.618Z,100833.79
2018-05-13T08:06:58.929Z,100841.69
2018-05-13T08:08:02.282Z,100852.34
2018-05-13T08:09:05.695Z,100849.63
2018-05-13T08:10:09.017Z,100859.20
2018-05-13T08:11:12.428Z,100866.69
2018-05-13T08:12:15.718Z,100869.62
2018-05-13T08:13:19.243Z,100866.68
2018-05-13T08:14:22.603Z,100869.61
2018-05-13T08:15:25.932Z,100866.47
2018-05-13T08:16:29.259Z,100870.02
2018-05-13T08:17:32.579Z,100871.52
2018-05-13T08:18:35.885Z,100869.63
2018-05-13T08:19:39.235Z,100870.38
2018-05-13T08:20:42.583Z,100865.36
2018-05-13T08:21:45.894Z,100860.14
2018-05-13T08:22:49.208Z,100858.27
2018-05-13T08:23:52.584Z,100862.42
2018-05-13T08:24:55.911Z,100863.48
2018-05-13T08:25:59.338Z,100861.39
2018-05-13T08:27:02.646Z,100867.41
2018-05-13T08:28:05.983Z,100870.44
2018-05-13T08:29:09.399Z,100864.68
2018-05-13T08:30:12.751Z,100870.30
2018-05-13T08:31:16.066Z,100869.63
2018-05-13T08:32:19.378Z,100868.58
2018-05-13T08:33:22.707Z,100863.97
2018-05-13T08:34:26.075Z,100870.82
2018-05-13T08:35:29.414Z,100875.08
2018-05-13T08:36:32.768Z,100877.35
2018-05-13T08:37:36.132Z,100874.39
2018-05-13T08:38:39.453Z,100877.20
2018-05-13T08:39:42.994Z,100872.80
2018-05-13T08:40:46.319Z,100871.39
2018-05-13T08:41:49.967Z,100866.80
2018-05-13T08:42:53.337Z,100868.01
2018-05-13T08:43:56.652Z,100860.20
2018-05-13T08:44:59.969Z,100857.30
2018-05-13T08:46:03.314Z,100857.99
2018-05-13T08:47:06.627Z,100858.30
2018-05-13T08:48:09.937Z,100860.37
2018-05-13T08:49:13.263Z,100872.41
2018-05-13T08:50:16.600Z,100870.09
2018-05-13T08:51:19.947Z,100882.16
2018-05-13T08:52:23.272Z,100880.45
2018-05-13T08:53:26.636Z,100885.83
2018-05-13T08:54:29.963Z,100880.41
2018-05-13T08:55:33.286Z,100889.96
2018-05-13T08:56:36.638Z,100890.36
2018-05-13T08:57:39.987Z,100886.28
2018-05-13T08:58:43.326Z,100879.91
2018-05-13T08:59:46.636Z,100876.97
2018-05-13T09:00:49.972Z,100863.42
2018-05-13T09:01:53.328Z,100866.02
2018-05-13T09:02:56.647Z,100862.86
2018-05-13T09:03:59.960Z,100856.92
2018-05-13T09:05:03.282Z,100861.88
2018-05-13T09:06:06.621Z,100854.16
2018-05-13T09:07:09.953Z,100849.56
2018-05-13T09:08:13.295Z,100839.84
2018-05-13T09:09:16.630Z,100833.17
2018-05-13T09:10:19.943Z,100815.82
2018-05-13T09:11:23.286Z,100808.22
2018-05-13T09:12:26.635Z,100803.75
2018-05-13T09:13:29.983Z,100804.17
2018-05-13T09:14:33.300Z,100808.95
2018-05-13T09:15:36.623Z,100812.34
2018-05-13T09:16:40.200Z,100813.48
2018-05-13T09:17:43.552Z,100821.59
2018-05-13T09:18:46.973Z,100828.44
2018-05-13T09:19:50.306Z,100836.54
2018-05-13T09:20:53.658Z,100841.02
2018-05-13T09:21:56.963Z,100843.20
2018-05-13T09:23:00.319Z,100857.55
2018-05-13T09:24:03.631Z,100855.66
2018-05-13T09:25:06.965Z,100858.19
2018-05-13T09:26:10.664Z,100870.05
2018-05-13T09:27:14.045Z,100872.89
2018-05-13T09:28:17.594Z,100875.48
2018-05-13T09:29:20.919Z,100879.80
2018-05-13T09:30:24.296Z,100880.73
2018-05-13T09:31:27.622Z,100881.16
2018-05-13T09:32:30.939Z,100883.02
2018-05-13T09:33:34.310Z,100890.34
2018-05-13T09:34:37.671Z,100891.39
2018-05-13T09:35:40.995Z,100894.19
2018-05-13T09:36:44.320Z,100893.34
2018-05-13T09:37:47.655Z,100891.66
2018-05-13T09:38:51.099Z,100893.13
2018-05-13T09:39:54.431Z,100889.17
2018-05-13T09:40:57.764Z,100890.28
2018-05-13T09:42:01.092Z,100889.73
2018-05-13T09:43:04.421Z,100891.81
2018-05-13T09:44:07.763Z,100885.32
2018-05-13T09:45:11.123Z,100891.11
2018-05-13T09:46:14.441Z,100888.50
2018-05-13T09:48:27.455Z,100894.01
2018-05-13T09:49:30.798Z,100894.73
2018-05-13T09:50:34.119Z,100893.34
2018-05-13T09:51:37.460Z,100885.63
2018-05-13T09:52:40.775Z,100889.94
2018-05-13T09:53:44.090Z,100888.47
2018-05-13T09:54:47.443Z,100904.03
2018-05-13T09:55:50.820Z,100902.86
2018-05-13T09:56:54.207Z,100900.88
2018-05-13T09:57:57.622Z,100910.50
2018-05-13T09:59:00.961Z,100915.36
2018-05-13T10:00:04.322Z,100915.14
2018-05-13T10:01:07.650Z,100916.03
2018-05-13T10:02:11.122Z,100910.17
2018-05-13T10:03:14.443Z,100907.02
2018-05-13T10:04:17.764Z,100905.63
2018-05-13T10:05:21.112Z,100905.38
2018-05-13T10:06:24.457Z,100903.98
2018-05-13T10:07:27.824Z,100901.16
2018-05-13T10:08:31.198Z,100896.44
2018-05-13T10:09:34.601Z,100901.17
2018-05-13T10:10:37.900Z,100906.35
2018-05-13T10:11:41.222Z,100904.25
2018-05-13T10:12:44.571Z,100913.39
2018-05-13T10:13:47.883Z,100916.35
2018-05-13T10:14:51.380Z,100919.34
2018-05-13T10:15:54.734Z,100919.55
2018-05-13T10:16:58.054Z,100917.02
2018-05-13T10:18:01.399Z,100910.05
2018-05-13T10:19:04.777Z,100910.31
2018-05-13T10:20:08.119Z,100903.77
2018-05-13T10:21:11.488Z,100908.92
2018-05-13T10:22:14.904Z,100904.66
2018-05-13T10:23:18.309Z,100908.88
2018-05-13T10:24:21.573Z,100909.08
2018-05-13T10:25:24.900Z,100901.25
2018-05-13T10:26:28.415Z,100906.42
2018-05-13T10:27:31.750Z,100902.13
2018-05-13T10:28:35.079Z,100900.56
2018-05-13T10:29:38.396Z,100899.41
2018-05-13T10:30:41.761Z,100894.36
2018-05-13T10:31:45.149Z,100897.34
2018-05-13T10:32:48.477Z,100901.59
2018-05-13T10:33:51.806Z,100908.94
2018-05-13T10:34:55.142Z,100915.84
2018-05-13T10:35:58.467Z,100910.23
2018-05-13T10:37:01.833Z,100913.64
2018-05-13T10:38:05.146Z,100911.11
2018-05-13T10:39:08.507Z,100906.31
2018-05-13T10:40:11.816Z,100906.52
2018-05-13T10:41:15.139Z,100904.91
2018-05-13T10:42:18.524Z,100906.46
2018-05-13T10:43:21.954Z,100907.05
2018-05-13T10:44:25.279Z,100907.26
2018-05-13T10:45:28.636Z,100916.86
2018-05-13T10:46:31.964Z,100914.79
2018-05-13T10:47:35.412Z,100920.27
2018-05-13T10:48:38.916Z,100919.00
2018-05-13T10:49:42.409Z,100918.78
2018-05-13T10:50:45.747Z,100910.02
2018-05-13T10:51:49.167Z,100908.45
2018-05-13T10:52:52.519Z,100902.39
2018-05-13T10:53:55.851Z,100909.33
2018-05-13T10:54:59.243Z,100912.61
2018-05-13T10:56:02.578Z,100921.33
2018-05-13T10:57:05.905Z,100925.03
2018-05-13T10:58:09.251Z,100929.16
2018-05-13T10:59:12.575Z,100931.94
2018-05-13T11:00:15.907Z,100928.56
2018-05-13T11:01:19.232Z,100930.92
2018-05-13T11:02:22.541Z,100931.13
2018-05-13T11:03:25.894Z,100931.13
2018-05-13T11:04:29.217Z,100925.81
2018-05-13T11:05:32.543Z,100929.44
2018-05-13T11:06:35.874Z,100922.90
2018-05-13T11:07:39.207Z,100925.67
2018-05-13T11:08:42.541Z,100918.09
2018-05-13T11:09:45.875Z,100918.69
2018-05-13T11:10:49.218Z,100922.84
2018-05-13T11:11:52.551Z,100917.53
2018-05-13T11:12:55.879Z,100922.17
2018-05-13T11:13:59.242Z,100920.48
2018-05-13T11:15:02.555Z,100917.91
2018-05-13T11:16:05.887Z,100920.68
2018-05-13T11:17:09.206Z,100915.80
2018-05-13T11:18:12.522Z,100917.94
2018-05-13T11:19:15.948Z,100909.20
2018-05-13T11:20:19.281Z,100911.14
2018-05-13T11:21:22.632Z,100905.50
2018-05-13T11:22:25.946Z,100902.66
2018-05-13T11:23:29.257Z,100908.55
2018-05-13T11:24:32.615Z,100912.88
2018-05-13T11:25:38.975Z,100916.70
2018-05-13T11:26:42.364Z,100917.56
2018-05-13T11:27:45.637Z,100919.16
2018-05-13T11:28:48.973Z,100912.80
2018-05-13T11:29:52.353Z,100909.88
2018-05-13T11:30:55.675Z,100903.00
2018-05-13T11:31:58.998Z,100898.70
2018-05-13T11:33:02.327Z,100898.48
2018-05-13T11:34:05.637Z,100895.45
2018-05-13T11:35:08.982Z,100891.61
2018-05-13T11:36:12.292Z,100889.41
2018-05-13T11:37:15.609Z,100895.22
2018-05-13T11:38:18.947Z,100891.19
2018-05-13T11:39:22.279Z,100892.11
2018-05-13T11:40:25.624Z,100891.69
2018-05-13T11:41:28.951Z,100893.88
2018-05-13T11:42:32.290Z,100894.80
2018-05-13T11:43:35.667Z,100895.64
2018-05-13T11:44:39.011Z,100898.84
2018-05-13T11:45:42.368Z,100902.97
2018-05-13T11:46:45.713Z,100908.02
2018-05-13T11:47:49.011Z,100913.48
2018-05-13T11:48:52.358Z,100921.98
2018-05-13T11:49:55.681Z,100925.22
2018-05-13T11:50:59.032Z,100927.14
2018-05-13T11:52:02.363Z,100941.96
2018-05-13T11:53:05.682Z,100939.34
2018-05-13T11:54:09.015Z,100941.53
2018-05-13T11:55:12.370Z,100937.08
2018-05-13T11:56:15.714Z,100942.88
2018-05-13T11:57:19.070Z,100944.23
2018-05-13T11:58:22.393Z,100940.61
2018-05-13T11:59:25.729Z,100941.38
2018-05-13T12:00:29.075Z,100946.34
2018-05-13T12:01:33.045Z,100948.50
2018-05-13T12:02:36.387Z,100944.38
2018-05-13T12:03:39.726Z,100945.64
2018-05-13T12:04:43.325Z,100941.94
2018-05-13T12:05:46.665Z,100939.66
2018-05-13T12:06:50.067Z,100933.23